Mindoro — SVAS8 — position and weather

sailwx.info

Track history (hours):
 
Tides and Currents Weather Stations Pressure Air Temp Water Temp Dewpoint Dewpoint Depression Visibility Wind Speed Wind Dir Waves Ship Positions

Mindoro

Last reported at 2015-Sep-04 14:33 UTC. Time now 2015-Sep-05 01:13 UTC.
Position N 39°16' W 009°59'.

Length 245 m; draft 14 m.

Type: Ship (hazmat cat B). MMSI: 240924000.

Date/timePositionNaut miles runAvg speedWind from/ knotsBaromVisibWave heightAir tempDewpointWater temp
2015-Sep-04 14:33N 39°16' W 009°59'1312.6
2015-Sep-04 13:33N 39°03' W 009°59'1312.9
2015-Sep-04 12:34N 38°50' W 009°57'1312.5
2015-Sep-04 11:33N 38°38' W 009°56'1312.6
2015-Sep-04 10:33N 38°25' W 009°52'1312.8
2015-Sep-04 09:33N 38°13' W 009°48'1412.9
2015-Sep-04 08:26N 37°59' W 009°45'352 9.0
2015-Sep-02 17:11N 36°10' W 002°46'2113.0
2015-Sep-02 15:33N 36°11' W 002°19'1312.7
2015-Sep-02 14:33N 36°13' W 002°04'1313.0
2015-Sep-02 13:33N 36°17' W 001°48'5313.0
2015-Sep-02 09:28N 36°32' W 000°45'3712.8
2015-Sep-02 06:33N 36°43' W 000°01'42913.0
2015-Aug-31 21:32N 37°56' E 008°51'1313.0
2015-Aug-31 20:33N 37°57' E 009°07'1312.9
2015-Aug-31 19:33N 37°59' E 009°23'1313.0
2015-Aug-31 18:32N 38°00' E 009°39'1313.0
2015-Aug-31 17:33N 38°02' E 009°56'1312.9
2015-Aug-31 16:33N 38°03' E 010°12'1313.1
2015-Aug-31 15:33N 38°05' E 010°28'1313.0
2015-Aug-31 14:32N 38°06' E 010°45'2412.2
2015-Aug-31 12:32N 37°60' E 011°15'2613.0
2015-Aug-31 10:33N 37°46' E 011°43'1313.0
2015-Aug-31 09:33N 37°39' E 011°57'1313.1
2015-Aug-31 08:33N 37°32' E 012°11'1313.0
2015-Aug-31 07:32N 37°26' E 012°25'1313.1
2015-Aug-31 06:33N 37°19' E 012°39'1313.0
2015-Aug-31 05:33N 37°12' E 012°53'2613.0
2015-Aug-31 03:33N 36°59' E 013°21'1313.1
2015-Aug-31 02:33N 36°52' E 013°35'1813.0
2015-Aug-31 01:11N 36°43' E 013°54'1112.9
2015-Aug-31 00:19N 36°37' E 014°06'1313.3
2015-Aug-30 23:22N 36°31' E 014°19'1113.0
2015-Aug-30 22:33N 36°26' E 014°31'1313.0
2015-Aug-30 21:33N 36°24' E 014°47'4212.9
2015-Aug-30 18:17N 36°18' E 015°39'1013.0
2015-Aug-30 17:31N 36°17' E 015°51'45212.9
2015-Aug-29 06:33N 35°46' E 025°09'1713.1
2015-Aug-29 05:14N 35°45' E 025°30'4812.4
2015-Aug-29 01:20N 35°26' E 026°25'2312.9
2015-Aug-28 23:33N 35°12' E 026°48'1312.8
2015-Aug-28 22:33N 35°04' E 026°60'1312.9
2015-Aug-28 21:33N 34°56' E 027°12'1312.9
2015-Aug-28 20:33N 34°48' E 027°25'1313.0
2015-Aug-28 19:33N 34°40' E 027°37'1313.1
2015-Aug-28 18:33N 34°32' E 027°49'1312.9
2015-Aug-28 17:33N 34°24' E 028°01'1313.0
2015-Aug-28 16:33N 34°16' E 028°14'4112.8
2015-Aug-28 13:21N 33°50' E 028°52'1012.8
2015-Aug-28 12:33N 33°44' E 029°02'14412.7
2015-Aug-28 01:15N 32°15' E 031°16'1013.7
2015-Aug-28 00:32N 32°09' E 031°25'1413.4
2015-Aug-27 23:28N 31°60' E 031°38'2513.1
2015-Aug-27 21:33N 31°43' E 032°01'2512.5
2015-Aug-27 19:33N 31°28' E 032°23'  
Track history (hours):
 
Tides and Currents Weather Stations Pressure Air Temp Water Temp Dewpoint Dewpoint Depression Visibility Wind Speed Wind Dir Waves Ship Positions

Mindoro

Last reported at 2015-Sep-04 14:33 UTC. Time now 2015-Sep-05 01:13 UTC.
Position N 39°16' W 009°59'.

Length 245 m; draft 14 m.

Type: Ship (hazmat cat B). MMSI: 240924000.

Date/timePositionNaut miles runAvg speedWind from/ knotsBaromVisibWave heightAir tempDewpointWater temp
2015-Sep-04 14:33N 39°16' W 009°59'1312.6
2015-Sep-04 13:33N 39°03' W 009°59'1312.9
2015-Sep-04 12:34N 38°50' W 009°57'1312.5
2015-Sep-04 11:33N 38°38' W 009°56'1312.6
2015-Sep-04 10:33N 38°25' W 009°52'1312.8
2015-Sep-04 09:33N 38°13' W 009°48'1412.9
2015-Sep-04 08:26N 37°59' W 009°45'352 9.0
2015-Sep-02 17:11N 36°10' W 002°46'2113.0
2015-Sep-02 15:33N 36°11' W 002°19'1312.7
2015-Sep-02 14:33N 36°13' W 002°04'1313.0
2015-Sep-02 13:33N 36°17' W 001°48'5313.0
2015-Sep-02 09:28N 36°32' W 000°45'3712.8
2015-Sep-02 06:33N 36°43' W 000°01'42913.0
2015-Aug-31 21:32N 37°56' E 008°51'1313.0
2015-Aug-31 20:33N 37°57' E 009°07'1312.9
2015-Aug-31 19:33N 37°59' E 009°23'1313.0
2015-Aug-31 18:32N 38°00' E 009°39'1313.0
2015-Aug-31 17:33N 38°02' E 009°56'1312.9
2015-Aug-31 16:33N 38°03' E 010°12'1313.1
2015-Aug-31 15:33N 38°05' E 010°28'1313.0
2015-Aug-31 14:32N 38°06' E 010°45'2412.2
2015-Aug-31 12:32N 37°60' E 011°15'2613.0
2015-Aug-31 10:33N 37°46' E 011°43'1313.0
2015-Aug-31 09:33N 37°39' E 011°57'1313.1
2015-Aug-31 08:33N 37°32' E 012°11'1313.0
2015-Aug-31 07:32N 37°26' E 012°25'1313.1
2015-Aug-31 06:33N 37°19' E 012°39'1313.0
2015-Aug-31 05:33N 37°12' E 012°53'2613.0
2015-Aug-31 03:33N 36°59' E 013°21'1313.1
2015-Aug-31 02:33N 36°52' E 013°35'1813.0
2015-Aug-31 01:11N 36°43' E 013°54'1112.9
2015-Aug-31 00:19N 36°37' E 014°06'1313.3
2015-Aug-30 23:22N 36°31' E 014°19'1113.0
2015-Aug-30 22:33N 36°26' E 014°31'1313.0
2015-Aug-30 21:33N 36°24' E 014°47'4212.9
2015-Aug-30 18:17N 36°18' E 015°39'1013.0
2015-Aug-30 17:31N 36°17' E 015°51'45212.9
2015-Aug-29 06:33N 35°46' E 025°09'1713.1
2015-Aug-29 05:14N 35°45' E 025°30'4812.4
2015-Aug-29 01:20N 35°26' E 026°25'2312.9
2015-Aug-28 23:33N 35°12' E 026°48'1312.8
2015-Aug-28 22:33N 35°04' E 026°60'1312.9
2015-Aug-28 21:33N 34°56' E 027°12'1312.9
2015-Aug-28 20:33N 34°48' E 027°25'1313.0
2015-Aug-28 19:33N 34°40' E 027°37'1313.1
2015-Aug-28 18:33N 34°32' E 027°49'1312.9
2015-Aug-28 17:33N 34°24' E 028°01'1313.0
2015-Aug-28 16:33N 34°16' E 028°14'4112.8
2015-Aug-28 13:21N 33°50' E 028°52'1012.8
2015-Aug-28 12:33N 33°44' E 029°02'14412.7
2015-Aug-28 01:15N 32°15' E 031°16'1013.7
2015-Aug-28 00:32N 32°09' E 031°25'1413.4
2015-Aug-27 23:28N 31°60' E 031°38'2513.1
2015-Aug-27 21:33N 31°43' E 032°01'2512.5
2015-Aug-27 19:33N 31°28' E 032°23'  

Dump ship's entire track history